Time;durP1;ratioP1;P1;durP2;ratioP2;P2;SDS_P1;SDS_P2;PMS_P1;PMS_P2;Temp;Humidity;BMP_temperature;BMP_pressure;BME280_temperature;BME280_humidity;BME280_pressure;Samples;Min_cycle;Max_cycle;Signal;HPM_P1;HPM_P2
2024/01/10 00:02:24;;;;;;;;;;;;;;;;;;5143929;28;20008;-57
2024/01/10 00:04:55;;;;;;;;;;;;;;;;;;5163680;28;19926;-58
2024/01/10 00:07:26;;;;;;;;;;;;;;;;;;5161931;28;19926;-57
2024/01/10 00:09:59;;;;;;;;;;;;;;;;;;5160316;28;20306;-55
2024/01/10 00:12:36;;;;;;;;;;;;;;;;;;5158838;28;19922;-56
2024/01/10 00:15:07;;;;;;;;;;;;;;;;;;5152569;28;19918;-56
2024/01/10 00:17:40;;;;;;;;;;;;;;;;;;5163651;28;20385;-56
2024/01/10 00:20:11;;;;;;;;;;;;;;;;;;5149583;28;19922;-57
2024/01/10 00:22:42;;;;;;;;;;;;;;;;;;5161671;28;19918;-58
2024/01/10 00:25:13;;;;;;;;;;;;;;;;;;5148980;28;19933;-55
2024/01/10 00:27:44;;;;;;;;;;;;;;;;;;5142602;28;19926;-56
2024/01/10 00:30:15;;;;;;;;;;;;;;;;;;5144739;28;19921;-56
2024/01/10 00:32:46;;;;;;;;;;;;;;;;;;5148590;28;20266;-56
2024/01/10 00:35:16;;;;;;;;;;;;;;;;;;5146942;28;19930;-56
2024/01/10 00:37:47;;;;;;;;;;;;;;;;;;5158853;28;20365;-56
2024/01/10 00:40:18;;;;;;;;;;;;;;;;;;5154650;28;19922;-56
2024/01/10 00:42:49;;;;;;;;;;;;;;;;;;5171714;28;20032;-56
2024/01/10 00:45:20;;;;;;;;;;;;;;;;;;5157519;28;19990;-55
2024/01/10 00:47:51;;;;;;;;;;;;;;;;;;5143052;28;20416;-55
2024/01/10 00:50:22;;;;;;;;;;;;;;;;;;5159928;28;19945;-56
2024/01/10 00:52:54;;;;;;;;;;;;;;;;;;5164123;28;19922;-56
2024/01/10 00:55:25;;;;;;;;;;;;;;;;;;5159082;28;19926;-56
2024/01/10 00:57:56;;;;;;;;;;;;;;;;;;5165249;28;19922;-56
2024/01/10 01:00:27;;;;;;;;;;;;;;;;;;5159435;28;19925;-56
2024/01/10 01:02:58;;;;;;;;;;;;;;;;;;5160774;28;19926;-58
2024/01/10 01:05:29;;;;;;;;;;;;;;;;;;5132074;28;19934;-57
2024/01/10 01:08:00;;;;;;;;;;;;;;;;;;5158706;28;19938;-58
2024/01/10 01:10:31;;;;;;;;;;;;;;;;;;5158966;28;19930;-57
2024/01/10 01:13:02;;;;;;;;;;;;;;;;;;5165456;28;19929;-59
2024/01/10 01:15:33;;;;;;;;;;;;;;;;;;5174669;28;20012;-58
2024/01/10 01:18:05;;;;;;;;;;;;;;;;;;5143299;28;20445;-58
2024/01/10 01:20:36;;;;;;;;;;;;;;;;;;5158939;28;20028;-57
2024/01/10 01:23:07;;;;;;;;;;;;;;;;;;5158613;28;20028;-56
2024/01/10 01:25:38;;;;;;;;;;;;;;;;;;5158468;28;19956;-56
2024/01/10 01:28:10;;;;;;;;;;;;;;;;;;5180631;28;19941;-56
2024/01/10 01:30:41;;;;;;;;;;;;;;;;;;5138629;28;19929;-56
2024/01/10 01:33:12;;;;;;;;;;;;;;;;;;5165280;28;19929;-55
2024/01/10 01:35:43;;;;;;;;;;;;;;;;;;5132580;28;20342;-56
2024/01/10 01:38:14;;;;;;;;;;;;;;;;;;5160652;28;20013;-55
2024/01/10 01:40:45;;;;;;;;;;;;;;;;;;5163573;28;19922;-55
2024/01/10 01:43:16;;;;;;;;;;;;;;;;;;5170459;28;19922;-55
2024/01/10 01:45:47;;;;;;;;;;;;;;;;;;5154122;28;19929;-56
2024/01/10 01:48:18;;;;;;;;;;;;;;;;;;5158263;28;20237;-56
2024/01/10 01:50:49;;;;;;;;;;;;;;;;;;5162007;28;19930;-57
2024/01/10 01:53:20;;;;;;;;;;;;;;;;;;5159037;28;19926;-56
2024/01/10 01:55:51;;;;;;;;;;;;;;;;;;5157788;28;19926;-55
2024/01/10 01:58:22;;;;;;;;;;;;;;;;;;5144550;28;19980;-55
2024/01/10 02:00:53;;;;;;;;;;;;;;;;;;5135274;28;19934;-57
2024/01/10 02:03:24;;;;;;;;;;;;;;;;;;5160327;28;19922;-58
2024/01/10 02:05:55;;;;;;;;;;;;;;;;;;5150325;28;19942;-58
2024/01/10 02:08:26;;;;;;;;;;;;;;;;;;5173826;28;19933;-59
2024/01/10 02:10:57;;;;;;;;;;;;;;;;;;5165161;28;20285;-56
2024/01/10 02:13:28;;;;;;;;;;;;;;;;;;5138010;28;19933;-55
2024/01/10 02:15:59;;;;;;;;;;;;;;;;;;5153168;28;19990;-56
2024/01/10 02:18:30;;;;;;;;;;;;;;;;;;5157872;28;19972;-57
2024/01/10 02:21:01;;;;;;;;;;;;;;;;;;5113992;28;19922;-56
2024/01/10 02:23:32;;;;;;;;;;;;;;;;;;5156467;28;19934;-56
2024/01/10 02:26:03;;;;;;;;;;;;;;;;;;5157855;28;19922;-57
2024/01/10 02:28:34;;;;;;;;;;;;;;;;;;5157996;28;19926;-56
2024/01/10 02:31:05;;;;;;;;;;;;;;;;;;5158929;28;19922;-56
2024/01/10 02:33:36;;;;;;;;;;;;;;;;;;5169676;28;19925;-56
2024/01/10 02:36:07;;;;;;;;;;;;;;;;;;5135532;28;19922;-57
2024/01/10 02:38:38;;;;;;;;;;;;;;;;;;5158363;28;19922;-57
2024/01/10 02:41:09;;;;;;;;;;;;;;;;;;5158114;28;20059;-56
2024/01/10 02:43:40;;;;;;;;;;;;;;;;;;5156446;28;20033;-58
2024/01/10 02:46:11;;;;;;;;;;;;;;;;;;5143996;28;19929;-58
2024/01/10 02:48:42;;;;;;;;;;;;;;;;;;5172800;28;19926;-60
2024/01/10 02:51:13;;;;;;;;;;;;;;;;;;5161281;28;19926;-60
2024/01/10 02:53:44;;;;;;;;;;;;;;;;;;5161032;28;20333;-59
2024/01/10 02:56:15;;;;;;;;;;;;;;;;;;5145251;28;19926;-61
2024/01/10 02:58:46;;;;;;;;;;;;;;;;;;5132228;28;19922;-58
2024/01/10 03:01:17;;;;;;;;;;;;;;;;;;5171333;28;19929;-60
2024/01/10 03:03:48;;;;;;;;;;;;;;;;;;5147563;28;20013;-58
2024/01/10 03:06:19;;;;;;;;;;;;;;;;;;5161609;28;19929;-57
2024/01/10 03:08:50;;;;;;;;;;;;;;;;;;5144810;28;19956;-58
2024/01/10 03:11:21;;;;;;;;;;;;;;;;;;5144440;28;19953;-58
2024/01/10 03:13:52;;;;;;;;;;;;;;;;;;5168437;28;19928;-58
2024/01/10 03:16:23;;;;;;;;;;;;;;;;;;5170856;28;19933;-60
2024/01/10 03:18:54;;;;;;;;;;;;;;;;;;5144807;28;19941;-60
2024/01/10 03:21:26;;;;;;;;;;;;;;;;;;5144361;28;20344;-59
2024/01/10 03:23:57;;;;;;;;;;;;;;;;;;5157616;28;20270;-58
2024/01/10 03:26:28;;;;;;;;;;;;;;;;;;5160861;28;19926;-59
2024/01/10 03:29:00;;;;;;;;;;;;;;;;;;5160890;28;20291;-58
2024/01/10 03:31:31;;;;;;;;;;;;;;;;;;5160924;28;20357;-58
2024/01/10 03:34:02;;;;;;;;;;;;;;;;;;5155043;28;19922;-58
2024/01/10 03:36:33;;;;;;;;;;;;;;;;;;5148917;28;19927;-57
2024/01/10 03:39:04;;;;;;;;;;;;;;;;;;5157954;28;19928;-57
2024/01/10 03:41:35;;;;;;;;;;;;;;;;;;5145102;28;20269;-57
2024/01/10 03:44:07;;;;;;;;;;;;;;;;;;5164727;28;19953;-56
2024/01/10 03:46:38;;;;;;;;;;;;;;;;;;5167494;28;19948;-56
2024/01/10 03:49:09;;;;;;;;;;;;;;;;;;5160976;28;19981;-55
2024/01/10 03:51:40;;;;;;;;;;;;;;;;;;5160908;28;20282;-56
2024/01/10 03:54:11;;;;;;;;;;;;;;;;;;5161257;28;19976;-57
2024/01/10 03:56:42;;;;;;;;;;;;;;;;;;5160053;28;19926;-58
2024/01/10 03:59:13;;;;;;;;;;;;;;;;;;5168702;28;20283;-56
2024/01/10 04:01:44;;;;;;;;;;;;;;;;;;5171940;28;19922;-56
2024/01/10 04:04:15;;;;;;;;;;;;;;;;;;5162505;28;19926;-56
2024/01/10 04:06:46;;;;;;;;;;;;;;;;;;5144748;28;20083;-56
2024/01/10 04:09:17;;;;;;;;;;;;;;;;;;5160665;28;19992;-56
2024/01/10 04:11:48;;;;;;;;;;;;;;;;;;5160537;28;19922;-56
2024/01/10 04:14:19;;;;;;;;;;;;;;;;;;5160676;28;19968;-58
2024/01/10 04:16:50;;;;;;;;;;;;;;;;;;5137961;28;19926;-57
2024/01/10 04:19:21;;;;;;;;;;;;;;;;;;5167894;28;20275;-56
2024/01/10 04:21:52;;;;;;;;;;;;;;;;;;5160379;28;19922;-56
2024/01/10 04:24:23;;;;;;;;;;;;;;;;;;5168982;28;19929;-57
2024/01/10 04:26:54;;;;;;;;;;;;;;;;;;5160768;28;20278;-57
2024/01/10 04:29:25;;;;;;;;;;;;;;;;;;5160347;28;19991;-57
2024/01/10 04:31:56;;;;;;;;;;;;;;;;;;5145853;28;19930;-57
2024/01/10 04:34:27;;;;;;;;;;;;;;;;;;5171877;28;19991;-57
2024/01/10 04:36:58;;;;;;;;;;;;;;;;;;5143197;28;19926;-57
2024/01/10 04:39:29;;;;;;;;;;;;;;;;;;5169569;28;19945;-57
2024/01/10 04:42:00;;;;;;;;;;;;;;;;;;5159952;28;20004;-59
2024/01/10 04:44:32;;;;;;;;;;;;;;;;;;5139930;28;19953;-57
2024/01/10 04:47:03;;;;;;;;;;;;;;;;;;5149192;28;19934;-58
2024/01/10 04:49:34;;;;;;;;;;;;;;;;;;5159350;28;19922;-59
2024/01/10 04:52:05;;;;;;;;;;;;;;;;;;5143667;28;19976;-57
2024/01/10 04:54:36;;;;;;;;;;;;;;;;;;5159473;28;20005;-56
2024/01/10 04:57:07;;;;;;;;;;;;;;;;;;5145845;28;20084;-57
2024/01/10 04:59:38;;;;;;;;;;;;;;;;;;5171592;28;19969;-56
2024/01/10 05:02:09;;;;;;;;;;;;;;;;;;5170345;28;20388;-56
2024/01/10 05:04:40;;;;;;;;;;;;;;;;;;5160258;28;19926;-56
2024/01/10 05:07:11;;;;;;;;;;;;;;;;;;5158690;28;19932;-56
2024/01/10 05:09:42;;;;;;;;;;;;;;;;;;5162568;28;19995;-56
2024/01/10 05:12:13;;;;;;;;;;;;;;;;;;5171132;28;19955;-56
2024/01/10 05:14:44;;;;;;;;;;;;;;;;;;5159263;28;20269;-56
2024/01/10 05:17:15;;;;;;;;;;;;;;;;;;5147114;28;20068;-56
2024/01/10 05:19:46;;;;;;;;;;;;;;;;;;5163313;28;20369;-56
2024/01/10 05:22:17;;;;;;;;;;;;;;;;;;5143015;28;20065;-56
2024/01/10 05:24:48;;;;;;;;;;;;;;;;;;5164891;28;19930;-56
2024/01/10 05:27:19;;;;;;;;;;;;;;;;;;5164588;28;20293;-56
2024/01/10 05:29:50;;;;;;;;;;;;;;;;;;5150067;28;19929;-56
2024/01/10 05:32:21;;;;;;;;;;;;;;;;;;5162031;28;19926;-57
2024/01/10 05:34:52;;;;;;;;;;;;;;;;;;5153273;28;19932;-56
2024/01/10 05:37:23;;;;;;;;;;;;;;;;;;5158927;28;19922;-56
2024/01/10 05:39:54;;;;;;;;;;;;;;;;;;5162530;28;19922;-57
2024/01/10 05:42:26;;;;;;;;;;;;;;;;;;5162496;28;20320;-58
2024/01/10 05:44:57;;;;;;;;;;;;;;;;;;5170347;28;19926;-57
2024/01/10 05:47:28;;;;;;;;;;;;;;;;;;5167306;28;19926;-56
2024/01/10 05:49:59;;;;;;;;;;;;;;;;;;5130948;28;19922;-55
2024/01/10 05:52:30;;;;;;;;;;;;;;;;;;5149275;28;20358;-55
2024/01/10 05:55:02;;;;;;;;;;;;;;;;;;5156893;28;20010;-55
2024/01/10 05:57:33;;;;;;;;;;;;;;;;;;5140907;28;19940;-56
2024/01/10 06:00:04;;;;;;;;;;;;;;;;;;5156939;28;20009;-56
2024/01/10 06:02:35;;;;;;;;;;;;;;;;;;5157231;28;20346;-57
2024/01/10 06:05:06;;;;;;;;;;;;;;;;;;5156337;28;19922;-56
2024/01/10 06:07:37;;;;;;;;;;;;;;;;;;5141859;28;19929;-57
2024/01/10 06:10:09;;;;;;;;;;;;;;;;;;5141959;28;19929;-56
2024/01/10 06:12:40;;;;;;;;;;;;;;;;;;5139352;28;19929;-56
2024/01/10 06:15:11;;;;;;;;;;;;;;;;;;5142420;28;19985;-55
2024/01/10 06:17:43;;;;;;;;;;;;;;;;;;5158422;28;19922;-56
2024/01/10 06:20:14;;;;;;;;;;;;;;;;;;5143629;28;20317;-57
2024/01/10 06:22:46;;;;;;;;;;;;;;;;;;5162701;28;19992;-56
2024/01/10 06:25:17;;;;;;;;;;;;;;;;;;5162747;28;19929;-56
2024/01/10 06:27:49;;;;;;;;;;;;;;;;;;5162599;28;19930;-57
2024/01/10 06:30:20;;;;;;;;;;;;;;;;;;5145936;28;19929;-57
2024/01/10 06:32:51;;;;;;;;;;;;;;;;;;5156683;28;19921;-56
2024/01/10 06:35:21;;;;;;;;;;;;;;;;;;5136103;28;19926;-57
2024/01/10 06:37:52;;;;;;;;;;;;;;;;;;5146026;28;20009;-56
2024/01/10 06:40:23;;;;;;;;;;;;;;;;;;5162094;28;19926;-56
2024/01/10 06:42:54;;;;;;;;;;;;;;;;;;5145958;28;19970;-56
2024/01/10 06:45:25;;;;;;;;;;;;;;;;;;5141190;28;19930;-56
2024/01/10 06:47:57;;;;;;;;;;;;;;;;;;5161865;28;19958;-55
2024/01/10 06:50:28;;;;;;;;;;;;;;;;;;5161026;28;19942;-55
2024/01/10 06:52:59;;;;;;;;;;;;;;;;;;5177933;28;19922;-56
2024/01/10 06:55:30;;;;;;;;;;;;;;;;;;5161603;28;20258;-56
2024/01/10 06:58:01;;;;;;;;;;;;;;;;;;5161464;28;19926;-57
2024/01/10 07:00:32;;;;;;;;;;;;;;;;;;5161486;28;20472;-56
2024/01/10 07:03:03;;;;;;;;;;;;;;;;;;5143578;28;20034;-56
2024/01/10 07:05:33;;;;;;;;;;;;;;;;;;5125648;28;19929;-57
2024/01/10 07:08:04;;;;;;;;;;;;;;;;;;5161545;28;20282;-57
2024/01/10 07:10:38;;;;;;;;;;;;;;;;;;5161835;28;19926;-57
2024/01/10 07:13:09;;;;;;;;;;;;;;;;;;5161238;28;19930;-57
2024/01/10 07:15:40;;;;;;;;;;;;;;;;;;5145603;28;20409;-57
2024/01/10 07:18:11;;;;;;;;;;;;;;;;;;5129112;28;20060;-57
2024/01/10 07:20:42;;;;;;;;;;;;;;;;;;5157878;28;19922;-56
2024/01/10 07:23:13;;;;;;;;;;;;;;;;;;5128479;28;20258;-57
2024/01/10 07:25:44;;;;;;;;;;;;;;;;;;5149549;28;20065;-57
2024/01/10 07:28:15;;;;;;;;;;;;;;;;;;5144940;28;19933;-58
2024/01/10 07:30:46;;;;;;;;;;;;;;;;;;5160531;28;19929;-57
2024/01/10 07:33:18;;;;;;;;;;;;;;;;;;5159931;28;19926;-57
2024/01/10 07:35:49;;;;;;;;;;;;;;;;;;5160115;28;20388;-56
2024/01/10 07:38:20;;;;;;;;;;;;;;;;;;5160298;28;19922;-57
2024/01/10 07:40:51;;;;;;;;;;;;;;;;;;5160045;28;19922;-58
2024/01/10 07:43:22;;;;;;;;;;;;;;;;;;5127907;28;19922;-58
2024/01/10 07:45:53;;;;;;;;;;;;;;;;;;5158239;28;20264;-56
2024/01/10 07:48:24;;;;;;;;;;;;;;;;;;5159711;28;19937;-57
2024/01/10 07:50:55;;;;;;;;;;;;;;;;;;5159972;28;19926;-56
2024/01/10 07:53:26;;;;;;;;;;;;;;;;;;5159590;28;19934;-57
2024/01/10 07:55:57;;;;;;;;;;;;;;;;;;5159844;28;19933;-57
2024/01/10 07:58:28;;;;;;;;;;;;;;;;;;5160085;28;19930;-57
2024/01/10 08:00:59;;;;;;;;;;;;;;;;;;5143648;28;19929;-58
2024/01/10 08:03:30;;;;;;;;;;;;;;;;;;5159657;28;19981;-57
2024/01/10 08:06:01;;;;;;;;;;;;;;;;;;5150137;28;19918;-57
2024/01/10 08:08:32;;;;;;;;;;;;;;;;;;5144136;28;19926;-58
2024/01/10 08:11:03;;;;;;;;;;;;;;;;;;5153927;28;19922;-58
2024/01/10 08:13:34;;;;;;;;;;;;;;;;;;5150976;28;20338;-58
2024/01/10 08:16:08;;;;;;;;;;;;;;;;;;5127760;28;20010;-57
2024/01/10 08:18:39;;;;;;;;;;;;;;;;;;5160092;28;20529;-58
2024/01/10 08:21:10;;;;;;;;;;;;;;;;;;5159733;28;20042;-56
2024/01/10 08:23:41;;;;;;;;;;;;;;;;;;5159891;28;19923;-56
2024/01/10 08:26:12;;;;;;;;;;;;;;;;;;5137324;28;19929;-57
2024/01/10 08:28:43;;;;;;;;;;;;;;;;;;5159746;28;19926;-57
2024/01/10 08:31:14;;;;;;;;;;;;;;;;;;5160271;28;20329;-57
2024/01/10 08:33:46;;;;;;;;;;;;;;;;;;5171915;28;19922;-57
2024/01/10 08:36:17;;;;;;;;;;;;;;;;;;5160105;28;20662;-56
2024/01/10 08:38:48;;;;;;;;;;;;;;;;;;5159708;28;19926;-57
2024/01/10 08:41:19;;;;;;;;;;;;;;;;;;5159723;28;19926;-57
2024/01/10 08:43:51;;;;;;;;;;;;;;;;;;5142785;28;19922;-57
2024/01/10 08:46:22;;;;;;;;;;;;;;;;;;5142778;28;20400;-57
2024/01/10 08:48:53;;;;;;;;;;;;;;;;;;5158886;28;20013;-57
2024/01/10 08:51:24;;;;;;;;;;;;;;;;;;5149890;28;19929;-57
2024/01/10 08:53:56;;;;;;;;;;;;;;;;;;5174859;28;20318;-58
2024/01/10 08:56:27;;;;;;;;;;;;;;;;;;5143245;28;19926;-57
2024/01/10 08:58:58;;;;;;;;;;;;;;;;;;5159586;28;20000;-57
2024/01/10 09:01:29;;;;;;;;;;;;;;;;;;5159339;28;20406;-57
2024/01/10 09:04:00;;;;;;;;;;;;;;;;;;5160042;28;19922;-56
2024/01/10 09:06:31;;;;;;;;;;;;;;;;;;5143214;28;19922;-56
2024/01/10 09:09:02;;;;;;;;;;;;;;;;;;5155469;28;19973;-56
2024/01/10 09:11:34;;;;;;;;;;;;;;;;;;5159424;28;19965;-57
2024/01/10 09:14:05;;;;;;;;;;;;;;;;;;5132438;28;19929;-56
2024/01/10 09:16:36;;;;;;;;;;;;;;;;;;5159569;28;19930;-57
2024/01/10 09:19:07;;;;;;;;;;;;;;;;;;5158907;28;19929;-56
2024/01/10 09:21:38;;;;;;;;;;;;;;;;;;5159428;28;19922;-57
2024/01/10 09:24:11;;;;;;;;;;;;;;;;;;5159526;28;20005;-57
2024/01/10 09:26:42;;;;;;;;;;;;;;;;;;5159256;28;20061;-57
2024/01/10 09:29:14;;;;;;;;;;;;;;;;;;5141411;28;19962;-57
2024/01/10 09:31:45;;;;;;;;;;;;;;;;;;5142137;28;19922;-57
2024/01/10 09:34:16;;;;;;;;;;;;;;;;;;5154410;28;19997;-58
2024/01/10 09:36:47;;;;;;;;;;;;;;;;;;5159136;28;20013;-58
2024/01/10 09:39:19;;;;;;;;;;;;;;;;;;5142547;28;19929;-57
2024/01/10 09:41:53;;;;;;;;;;;;;;;;;;5142360;28;19922;-57
2024/01/10 09:44:24;;;;;;;;;;;;;;;;;;5142756;28;20026;-57
2024/01/10 09:46:55;;;;;;;;;;;;;;;;;;5159013;28;19922;-57
2024/01/10 09:49:26;;;;;;;;;;;;;;;;;;5148279;28;19926;-57
2024/01/10 09:51:57;;;;;;;;;;;;;;;;;;5145812;28;19922;-59
2024/01/10 09:54:28;;;;;;;;;;;;;;;;;;5159075;28;19922;-58
2024/01/10 09:56:59;;;;;;;;;;;;;;;;;;5146273;28;19929;-57
2024/01/10 09:59:30;;;;;;;;;;;;;;;;;;5161557;28;19922;-56
2024/01/10 10:02:01;;;;;;;;;;;;;;;;;;5162549;28;19922;-57
2024/01/10 10:04:32;;;;;;;;;;;;;;;;;;5162619;28;19929;-57
2024/01/10 10:07:03;;;;;;;;;;;;;;;;;;5130226;28;19925;-57
2024/01/10 10:09:34;;;;;;;;;;;;;;;;;;5173696;28;19933;-57
2024/01/10 10:12:05;;;;;;;;;;;;;;;;;;5146462;28;19926;-57
2024/01/10 10:14:36;;;;;;;;;;;;;;;;;;5146176;28;19922;-57
2024/01/10 10:17:07;;;;;;;;;;;;;;;;;;5146726;28;19922;-57
2024/01/10 10:19:38;;;;;;;;;;;;;;;;;;5162526;28;19976;-56
2024/01/10 10:22:09;;;;;;;;;;;;;;;;;;5146456;28;19926;-57
2024/01/10 10:24:41;;;;;;;;;;;;;;;;;;5161976;28;19922;-57
2024/01/10 10:27:15;;;;;;;;;;;;;;;;;;5161356;28;20382;-58
2024/01/10 10:29:46;;;;;;;;;;;;;;;;;;5146090;28;19937;-58
2024/01/10 10:32:18;;;;;;;;;;;;;;;;;;5163178;28;19926;-58
2024/01/10 10:34:49;;;;;;;;;;;;;;;;;;5140919;28;20285;-57
2024/01/10 10:37:20;;;;;;;;;;;;;;;;;;5162096;28;19922;-58
2024/01/10 10:39:52;;;;;;;;;;;;;;;;;;5162191;28;20325;-58
2024/01/10 10:42:23;;;;;;;;;;;;;;;;;;5161797;28;19950;-58
2024/01/10 10:44:54;;;;;;;;;;;;;;;;;;5162248;28;20359;-58
2024/01/10 10:47:25;;;;;;;;;;;;;;;;;;5158936;28;19930;-58
2024/01/10 10:49:56;;;;;;;;;;;;;;;;;;5155599;28;20067;-58
2024/01/10 10:52:27;;;;;;;;;;;;;;;;;;5161580;28;20365;-58
2024/01/10 10:54:58;;;;;;;;;;;;;;;;;;5161892;28;19926;-58
2024/01/10 10:57:29;;;;;;;;;;;;;;;;;;5161689;28;20424;-56
2024/01/10 11:00:00;;;;;;;;;;;;;;;;;;5158490;28;20016;-58
2024/01/10 11:02:31;;;;;;;;;;;;;;;;;;5160107;28;19921;-57
2024/01/10 11:05:03;;;;;;;;;;;;;;;;;;5161516;28;19941;-57
2024/01/10 11:07:34;;;;;;;;;;;;;;;;;;5144793;28;20340;-58
2024/01/10 11:10:05;;;;;;;;;;;;;;;;;;5161621;28;20013;-58
2024/01/10 11:12:36;;;;;;;;;;;;;;;;;;5144917;28;19949;-59
2024/01/10 11:15:09;;;;;;;;;;;;;;;;;;5161708;28;19926;-60
2024/01/10 11:17:40;;;;;;;;;;;;;;;;;;5144758;28;19929;-59
2024/01/10 11:20:11;;;;;;;;;;;;;;;;;;5161427;28;20008;-58
2024/01/10 11:22:43;;;;;;;;;;;;;;;;;;5138008;28;20308;-57
2024/01/10 11:25:14;;;;;;;;;;;;;;;;;;5161543;28;20020;-58
2024/01/10 11:27:47;;;;;;;;;;;;;;;;;;5177483;28;19926;-58
2024/01/10 11:30:18;;;;;;;;;;;;;;;;;;5161451;28;20401;-58
2024/01/10 11:32:49;;;;;;;;;;;;;;;;;;5166688;28;19922;-59
2024/01/10 11:35:24;;;;;;;;;;;;;;;;;;5122706;28;19926;-58
2024/01/10 11:38:01;;;;;;;;;;;;;;;;;;5161328;28;19965;-59
2024/01/10 11:40:32;;;;;;;;;;;;;;;;;;5144773;28;20013;-62
2024/01/10 11:43:04;;;;;;;;;;;;;;;;;;5155400;28;20013;-60
2024/01/10 11:45:36;;;;;;;;;;;;;;;;;;5160873;28;20020;-60
2024/01/10 11:48:07;;;;;;;;;;;;;;;;;;5142927;28;19926;-60
2024/01/10 11:50:38;;;;;;;;;;;;;;;;;;5160715;28;19934;-61
2024/01/10 11:53:09;;;;;;;;;;;;;;;;;;5153903;28;20028;-60
2024/01/10 11:55:40;;;;;;;;;;;;;;;;;;5158019;28;19972;-60
2024/01/10 11:58:11;;;;;;;;;;;;;;;;;;5160886;28;20016;-60
2024/01/10 12:00:42;;;;;;;;;;;;;;;;;;5144287;28;19932;-61
2024/01/10 12:03:13;;;;;;;;;;;;;;;;;;5159813;28;20357;-60
2024/01/10 12:05:44;;;;;;;;;;;;;;;;;;5160839;28;19926;-60
2024/01/10 12:08:15;;;;;;;;;;;;;;;;;;5144243;28;19932;-59
2024/01/10 12:10:46;;;;;;;;;;;;;;;;;;5160694;28;20284;-60
2024/01/10 12:13:17;;;;;;;;;;;;;;;;;;5160644;28;19923;-60
2024/01/10 12:15:48;;;;;;;;;;;;;;;;;;5144054;28;19922;-59
2024/01/10 12:18:20;;;;;;;;;;;;;;;;;;5159464;28;19929;-60
2024/01/10 12:20:51;;;;;;;;;;;;;;;;;;5160325;28;19922;-59
2024/01/10 12:23:23;;;;;;;;;;;;;;;;;;5158361;28;19922;-59
2024/01/10 12:25:53;;;;;;;;;;;;;;;;;;5144330;28;19984;-60
2024/01/10 12:28:25;;;;;;;;;;;;;;;;;;5158705;28;19942;-60
2024/01/10 12:30:55;;;;;;;;;;;;;;;;;;5154727;28;19922;-59
2024/01/10 12:33:26;;;;;;;;;;;;;;;;;;5170938;28;19926;-59
2024/01/10 12:35:57;;;;;;;;;;;;;;;;;;5128618;28;20017;-59
2024/01/10 12:38:28;;;;;;;;;;;;;;;;;;5159559;28;19948;-59
2024/01/10 12:41:00;;;;;;;;;;;;;;;;;;5159610;28;19922;-58
2024/01/10 12:43:31;;;;;;;;;;;;;;;;;;5155402;28;19988;-58
2024/01/10 12:46:02;;;;;;;;;;;;;;;;;;5143673;28;19929;-58
2024/01/10 12:48:33;;;;;;;;;;;;;;;;;;5143229;28;19932;-58
2024/01/10 12:51:07;;;;;;;;;;;;;;;;;;5159694;28;19977;-57
2024/01/10 12:53:38;;;;;;;;;;;;;;;;;;5158951;28;20373;-59
2024/01/10 12:56:13;;;;;;;;;;;;;;;;;;5159829;28;19923;-59
2024/01/10 12:58:44;;;;;;;;;;;;;;;;;;5159683;28;20235;-59
2024/01/10 13:01:15;;;;;;;;;;;;;;;;;;5132632;28;20032;-59
2024/01/10 13:03:48;;;;;;;;;;;;;;;;;;5117645;28;20377;-60
2024/01/10 13:06:22;;;;;;;;;;;;;;;;;;5159635;28;19922;-58
2024/01/10 13:08:54;;;;;;;;;;;;;;;;;;5143051;28;19926;-58
2024/01/10 13:11:25;;;;;;;;;;;;;;;;;;5151170;28;19922;-58
2024/01/10 13:13:56;;;;;;;;;;;;;;;;;;5126183;28;19926;-58
2024/01/10 13:16:27;;;;;;;;;;;;;;;;;;5157880;28;19926;-60
2024/01/10 13:18:59;;;;;;;;;;;;;;;;;;5159130;28;19930;-58
2024/01/10 13:21:30;;;;;;;;;;;;;;;;;;5158398;28;20003;-60
2024/01/10 13:24:01;;;;;;;;;;;;;;;;;;5158193;28;19925;-57
2024/01/10 13:26:32;;;;;;;;;;;;;;;;;;5142317;28;19922;-58
2024/01/10 13:29:03;;;;;;;;;;;;;;;;;;5141630;28;19933;-59
2024/01/10 13:31:34;;;;;;;;;;;;;;;;;;5158382;28;19953;-59
2024/01/10 13:34:05;;;;;;;;;;;;;;;;;;5154224;28;19945;-59
2024/01/10 13:36:36;;;;;;;;;;;;;;;;;;5148512;28;19922;-58
2024/01/10 13:39:07;;;;;;;;;;;;;;;;;;5151397;28;20302;-57
2024/01/10 13:41:38;;;;;;;;;;;;;;;;;;5135034;28;19922;-58
2024/01/10 13:44:09;;;;;;;;;;;;;;;;;;5174450;28;19948;-60
2024/01/10 13:46:41;;;;;;;;;;;;;;;;;;5142314;28;20362;-58
2024/01/10 13:49:12;;;;;;;;;;;;;;;;;;5158214;28;20417;-60
2024/01/10 13:51:44;;;;;;;;;;;;;;;;;;5157801;28;19962;-57
2024/01/10 13:54:15;;;;;;;;;;;;;;;;;;5157939;28;19926;-60
2024/01/10 13:56:46;;;;;;;;;;;;;;;;;;5152142;28;19922;-59
2024/01/10 13:59:17;;;;;;;;;;;;;;;;;;5131863;28;19929;-58
2024/01/10 14:01:48;;;;;;;;;;;;;;;;;;5140895;28;20281;-58
2024/01/10 14:04:19;;;;;;;;;;;;;;;;;;5158340;28;19922;-58
2024/01/10 14:06:50;;;;;;;;;;;;;;;;;;5158167;28;20385;-58
2024/01/10 14:09:21;;;;;;;;;;;;;;;;;;5141545;28;19936;-59
2024/01/10 14:11:52;;;;;;;;;;;;;;;;;;5143135;28;20422;-58
2024/01/10 14:14:23;;;;;;;;;;;;;;;;;;5157870;28;19930;-58
2024/01/10 14:16:54;;;;;;;;;;;;;;;;;;5156914;28;19933;-59
2024/01/10 14:19:26;;;;;;;;;;;;;;;;;;5157529;28;19922;-59
2024/01/10 14:21:57;;;;;;;;;;;;;;;;;;5168645;28;20377;-61
2024/01/10 14:24:28;;;;;;;;;;;;;;;;;;5170806;28;20037;-59
2024/01/10 14:27:00;;;;;;;;;;;;;;;;;;5162658;28;19945;-59
2024/01/10 14:29:31;;;;;;;;;;;;;;;;;;5167449;28;19941;-59
2024/01/10 14:32:03;;;;;;;;;;;;;;;;;;5124919;28;20742;-60
2024/01/10 14:34:34;;;;;;;;;;;;;;;;;;5152610;28;20039;-62
2024/01/10 14:37:07;;;;;;;;;;;;;;;;;;5155205;28;19929;-60
2024/01/10 14:39:41;;;;;;;;;;;;;;;;;;5147339;28;19933;-60
2024/01/10 14:42:13;;;;;;;;;;;;;;;;;;5167416;28;19926;-60
2024/01/10 14:44:45;;;;;;;;;;;;;;;;;;5163860;28;20029;-60
2024/01/10 14:47:16;;;;;;;;;;;;;;;;;;5166878;28;19926;-59
2024/01/10 14:49:47;;;;;;;;;;;;;;;;;;5147553;28;20350;-58
2024/01/10 14:52:18;;;;;;;;;;;;;;;;;;5163416;28;19933;-57
2024/01/10 14:54:49;;;;;;;;;;;;;;;;;;5161979;28;19922;-60
2024/01/10 14:57:21;;;;;;;;;;;;;;;;;;5164870;28;19929;-59
2024/01/10 14:59:52;;;;;;;;;;;;;;;;;;5160041;28;20000;-60
2024/01/10 15:02:23;;;;;;;;;;;;;;;;;;5159918;28;19922;-61
2024/01/10 15:04:54;;;;;;;;;;;;;;;;;;5123495;29;20009;-60
2024/01/10 15:07:26;;;;;;;;;;;;;;;;;;5150536;28;19930;-60
2024/01/10 15:09:58;;;;;;;;;;;;;;;;;;5139998;28;20505;-61
2024/01/10 15:12:29;;;;;;;;;;;;;;;;;;5159274;28;19926;-61
2024/01/10 15:15:01;;;;;;;;;;;;;;;;;;5160427;28;20318;-60
2024/01/10 15:17:32;;;;;;;;;;;;;;;;;;5160462;28;20057;-60
2024/01/10 15:20:03;;;;;;;;;;;;;;;;;;5160293;28;20388;-59
2024/01/10 15:22:37;;;;;;;;;;;;;;;;;;5144468;28;19933;-60
2024/01/10 15:25:08;;;;;;;;;;;;;;;;;;5160315;28;20014;-59
2024/01/10 15:27:39;;;;;;;;;;;;;;;;;;5144688;28;19930;-59
2024/01/10 15:30:10;;;;;;;;;;;;;;;;;;5144558;28;19926;-60
2024/01/10 15:32:41;;;;;;;;;;;;;;;;;;5149733;28;20319;-61
2024/01/10 15:35:13;;;;;;;;;;;;;;;;;;5152493;28;19922;-58
2024/01/10 15:37:44;;;;;;;;;;;;;;;;;;5150134;28;19922;-57
2024/01/10 15:40:15;;;;;;;;;;;;;;;;;;5173316;28;19922;-58
2024/01/10 15:42:46;;;;;;;;;;;;;;;;;;5168033;28;19992;-58
2024/01/10 15:45:17;;;;;;;;;;;;;;;;;;5174372;28;19965;-59
2024/01/10 15:47:48;;;;;;;;;;;;;;;;;;5161706;28;20405;-59
2024/01/10 15:50:19;;;;;;;;;;;;;;;;;;5172308;28;19930;-57
2024/01/10 15:52:51;;;;;;;;;;;;;;;;;;5128543;28;19921;-56
2024/01/10 15:55:22;;;;;;;;;;;;;;;;;;5168693;28;20343;-57
2024/01/10 15:57:53;;;;;;;;;;;;;;;;;;5167475;28;19917;-57
2024/01/10 16:00:24;;;;;;;;;;;;;;;;;;5146062;28;20009;-58
2024/01/10 16:02:55;;;;;;;;;;;;;;;;;;5162638;28;20009;-56
2024/01/10 16:05:27;;;;;;;;;;;;;;;;;;5136090;28;19930;-59
2024/01/10 16:07:58;;;;;;;;;;;;;;;;;;5142160;28;19926;-58
2024/01/10 16:10:29;;;;;;;;;;;;;;;;;;5141528;28;20289;-57
2024/01/10 16:13:00;;;;;;;;;;;;;;;;;;5128653;28;19933;-58
2024/01/10 16:15:31;;;;;;;;;;;;;;;;;;5140871;28;19922;-57
2024/01/10 16:18:02;;;;;;;;;;;;;;;;;;5163684;28;19926;-59
2024/01/10 16:20:33;;;;;;;;;;;;;;;;;;5143714;28;20297;-59
2024/01/10 16:23:04;;;;;;;;;;;;;;;;;;5150639;28;20219;-59
2024/01/10 16:25:35;;;;;;;;;;;;;;;;;;5127813;28;20285;-59
2024/01/10 16:28:06;;;;;;;;;;;;;;;;;;5158615;28;19933;-61
2024/01/10 16:30:37;;;;;;;;;;;;;;;;;;5152590;28;19922;-61
2024/01/10 16:33:09;;;;;;;;;;;;;;;;;;5143845;28;20385;-60
2024/01/10 16:35:40;;;;;;;;;;;;;;;;;;5154245;28;19994;-60
2024/01/10 16:38:11;;;;;;;;;;;;;;;;;;5134933;28;19929;-60
2024/01/10 16:40:42;;;;;;;;;;;;;;;;;;5157618;28;19938;-62
2024/01/10 16:43:12;;;;;;;;;;;;;;;;;;5135900;28;19948;-59
2024/01/10 16:45:43;;;;;;;;;;;;;;;;;;5126167;28;19926;-60
2024/01/10 16:48:14;;;;;;;;;;;;;;;;;;5136494;28;19980;-61
2024/01/10 16:50:45;;;;;;;;;;;;;;;;;;5126631;28;19922;-61
2024/01/10 16:53:25;;;;;;;;;;;;;;;;;;5126595;28;20445;-60
2024/01/10 16:55:57;;;;;;;;;;;;;;;;;;5154616;28;19930;-62
2024/01/10 16:58:28;;;;;;;;;;;;;;;;;;5128318;28;19985;-60
2024/01/10 17:00:59;;;;;;;;;;;;;;;;;;5126222;28;19922;-59
2024/01/10 17:03:31;;;;;;;;;;;;;;;;;;5155871;28;19937;-61
2024/01/10 17:06:02;;;;;;;;;;;;;;;;;;5156463;28;19976;-61
2024/01/10 17:08:33;;;;;;;;;;;;;;;;;;5158110;28;19970;-62
2024/01/10 17:11:04;;;;;;;;;;;;;;;;;;5146659;28;19962;-63
2024/01/10 17:13:35;;;;;;;;;;;;;;;;;;5154125;28;19926;-60